createdAt,value
2019-01-17T00:01:56.528Z,20.79
2019-01-17T00:07:20.061Z,20.80
2019-01-17T00:12:25.161Z,20.80
2019-01-17T00:17:41.954Z,20.80
2019-01-17T00:22:56.225Z,20.80
2019-01-17T00:28:07.121Z,20.79
2019-01-17T00:33:24.100Z,20.79
2019-01-17T00:38:45.628Z,20.78
2019-01-17T00:44:02.764Z,20.78
2019-01-17T00:49:10.802Z,20.77
2019-01-17T00:54:21.372Z,20.78
2019-01-17T00:59:26.490Z,20.77
2019-01-17T01:04:31.589Z,20.76
2019-01-17T01:09:45.365Z,20.76
2019-01-17T01:15:09.406Z,20.76
2019-01-17T01:20:14.512Z,20.75
2019-01-17T01:25:37.451Z,20.75
2019-01-17T01:30:57.257Z,20.74
2019-01-17T01:36:05.353Z,20.73
2019-01-17T01:41:25.580Z,20.73
2019-01-17T01:46:30.695Z,20.73
2019-01-17T01:51:44.737Z,20.72
2019-01-17T01:56:48.219Z,20.71
2019-01-17T02:01:51.695Z,20.71
2019-01-17T02:06:55.175Z,20.72
2019-01-17T02:11:58.650Z,20.70
2019-01-17T02:17:02.330Z,20.69
2019-01-17T02:22:05.801Z,20.69
2019-01-17T02:27:09.284Z,20.69
2019-01-17T02:32:12.751Z,20.68
2019-01-17T02:37:16.230Z,20.69
2019-01-17T02:42:19.777Z,20.68
2019-01-17T02:47:23.256Z,20.68
2019-01-17T02:52:26.731Z,20.68
2019-01-17T02:57:30.214Z,20.65
2019-01-17T03:02:33.690Z,20.65
2019-01-17T03:07:37.170Z,20.65
2019-01-17T03:12:40.646Z,20.64
2019-01-17T03:17:44.126Z,20.64
2019-01-17T03:22:47.646Z,20.63
2019-01-17T03:27:51.158Z,20.64
2019-01-17T03:32:54.635Z,20.62
2019-01-17T03:37:58.105Z,20.62
2019-01-17T03:43:01.593Z,20.63
2019-01-17T03:48:05.058Z,20.61
2019-01-17T03:53:08.539Z,20.59
2019-01-17T03:58:12.016Z,20.60
2019-01-17T04:03:17.061Z,20.61
2019-01-17T04:08:20.541Z,20.61
2019-01-17T04:13:24.014Z,20.59
2019-01-17T04:18:27.490Z,20.59
2019-01-17T04:23:30.975Z,20.58
2019-01-17T04:28:34.462Z,20.58
2019-01-17T04:33:37.922Z,20.59
2019-01-17T04:38:41.401Z,20.59
2019-01-17T04:43:44.865Z,20.58
2019-01-17T04:48:48.343Z,20.58
2019-01-17T04:53:51.820Z,20.58
2019-01-17T04:58:55.298Z,20.59
2019-01-17T05:03:58.779Z,20.58
2019-01-17T05:09:02.259Z,20.58
2019-01-17T05:14:05.819Z,20.57
2019-01-17T05:19:09.298Z,20.57
2019-01-17T05:24:12.774Z,20.57
2019-01-17T05:29:16.259Z,20.55
2019-01-17T05:34:19.734Z,20.56
2019-01-17T05:39:23.209Z,20.56
2019-01-17T05:44:26.681Z,20.55
2019-01-17T05:49:30.158Z,20.55
2019-01-17T05:54:33.629Z,20.55
2019-01-17T05:59:37.111Z,20.54
2019-01-17T06:04:40.586Z,20.54
2019-01-17T06:09:44.065Z,20.53
2019-01-17T06:14:47.547Z,20.53
2019-01-17T06:19:51.023Z,20.53
2019-01-17T06:24:54.503Z,20.53
2019-01-17T06:29:57.977Z,20.52
2019-01-17T06:35:01.536Z,20.51
2019-01-17T06:40:11.512Z,20.52
2019-01-17T06:45:15.165Z,20.52
2019-01-17T06:50:18.645Z,20.52
2019-01-17T06:55:22.124Z,20.51
2019-01-17T07:00:25.585Z,20.51
2019-01-17T07:05:29.056Z,20.50
2019-01-17T07:10:32.531Z,20.50
2019-01-17T07:15:35.985Z,20.50
2019-01-17T07:20:39.453Z,20.50
2019-01-17T07:25:42.927Z,20.49
2019-01-17T07:30:46.387Z,20.49
2019-01-17T07:35:49.846Z,20.49
2019-01-17T07:40:53.314Z,20.49
2019-01-17T07:45:56.770Z,20.48
2019-01-17T07:51:00.229Z,20.48
2019-01-17T07:56:04.177Z,20.46
2019-01-17T08:01:07.625Z,20.47
2019-01-17T08:06:11.085Z,20.43
2019-01-17T08:11:14.541Z,19.45
2019-01-17T08:16:18.071Z,18.99
2019-01-17T08:21:21.536Z,18.50
2019-01-17T08:26:24.993Z,18.14
2019-01-17T08:31:28.459Z,18.00
2019-01-17T08:36:31.919Z,18.39
2019-01-17T08:41:35.378Z,18.68
2019-01-17T08:46:38.844Z,18.87
2019-01-17T08:51:42.312Z,19.02
2019-01-17T08:56:45.781Z,19.17
2019-01-17T09:01:49.243Z,19.28
2019-01-17T09:06:52.708Z,19.39
2019-01-17T09:11:56.176Z,19.48
2019-01-17T09:16:59.633Z,19.57
2019-01-17T09:22:03.095Z,19.63
2019-01-17T09:27:06.553Z,19.72
2019-01-17T09:32:10.082Z,19.82
2019-01-17T09:37:13.541Z,19.82
2019-01-17T09:42:17.008Z,19.89
2019-01-17T09:47:20.470Z,19.95
2019-01-17T09:52:23.929Z,20.00
2019-01-17T09:57:27.390Z,20.04
2019-01-17T10:02:30.849Z,20.08
2019-01-17T10:07:34.312Z,20.12
2019-01-17T10:12:37.770Z,20.17
2019-01-17T10:17:46.720Z,20.20
2019-01-17T10:23:08.232Z,20.23
2019-01-17T10:28:49.756Z,20.26
2019-01-17T10:33:58.935Z,20.30
2019-01-17T10:39:17.162Z,20.32
2019-01-17T10:44:35.161Z,20.36
2019-01-17T10:49:59.329Z,20.39
2019-01-17T10:55:34.357Z,20.41
2019-01-17T11:00:40.883Z,20.43
2019-01-17T11:05:55.623Z,20.47
2019-01-17T11:11:14.013Z,20.52
2019-01-17T11:16:44.327Z,20.56
2019-01-17T11:21:56.397Z,20.59
2019-01-17T11:27:25.397Z,20.64
2019-01-17T11:32:50.983Z,20.64
2019-01-17T11:38:03.343Z,20.68
2019-01-17T11:43:26.439Z,20.70
2019-01-17T11:48:38.817Z,20.73
2019-01-17T11:53:45.593Z,20.74
2019-01-17T11:59:00.089Z,20.75
2019-01-17T12:04:31.389Z,20.76
2019-01-17T12:09:34.852Z,20.77
2019-01-17T12:14:38.313Z,20.81
2019-01-17T12:19:41.775Z,20.82
2019-01-17T12:24:45.237Z,20.83
2019-01-17T12:29:48.704Z,20.84
2019-01-17T12:34:52.169Z,20.87
2019-01-17T12:39:55.624Z,20.87
2019-01-17T12:44:59.090Z,20.88
2019-01-17T12:50:02.541Z,20.88
2019-01-17T12:55:08.243Z,20.90
2019-01-17T13:00:14.906Z,20.91
2019-01-17T13:05:18.551Z,20.91
2019-01-17T13:10:21.976Z,20.93
2019-01-17T13:15:25.440Z,20.93
2019-01-17T13:20:28.907Z,20.68
2019-01-17T13:25:32.441Z,20.40
2019-01-17T13:30:35.911Z,20.24
2019-01-17T13:35:39.542Z,20.32
2019-01-17T13:40:43.001Z,20.40
2019-01-17T13:45:46.462Z,20.45
2019-01-17T13:50:49.930Z,20.48
2019-01-17T13:55:53.398Z,20.51
2019-01-17T14:00:56.860Z,20.53
2019-01-17T14:06:00.328Z,20.55
2019-01-17T14:11:04.258Z,20.58
2019-01-17T14:16:07.887Z,20.60
2019-01-17T14:21:11.418Z,20.61
2019-01-17T14:26:14.880Z,20.62
2019-01-17T14:31:18.341Z,20.65
2019-01-17T14:36:21.803Z,20.66
2019-01-17T14:41:25.263Z,20.69
2019-01-17T14:46:28.736Z,20.70
2019-01-17T14:51:32.194Z,20.70
2019-01-17T14:56:35.655Z,20.71
2019-01-17T15:01:39.134Z,20.72
2019-01-17T15:06:42.580Z,20.72
2019-01-17T15:11:46.048Z,20.74
2019-01-17T15:16:49.505Z,20.73
2019-01-17T15:21:52.986Z,20.73
2019-01-17T15:26:56.438Z,20.73
2019-01-17T15:31:59.897Z,20.72
2019-01-17T15:37:03.532Z,20.75
2019-01-17T15:42:06.994Z,20.74
2019-01-17T15:47:13.208Z,20.75
2019-01-17T15:52:15.640Z,20.75
2019-01-17T15:57:19.102Z,20.76
2019-01-17T16:02:22.569Z,20.76
2019-01-17T16:07:26.021Z,20.76
2019-01-17T16:12:29.483Z,20.76
2019-01-17T16:17:32.950Z,20.75
2019-01-17T16:22:36.418Z,20.75
2019-01-17T16:27:41.828Z,20.76
2019-01-17T16:32:45.137Z,20.76
2019-01-17T16:37:48.599Z,20.76
2019-01-17T16:42:52.124Z,20.77
2019-01-17T16:47:55.591Z,20.78
2019-01-17T16:52:59.046Z,20.78
2019-01-17T16:58:02.510Z,20.79
2019-01-17T17:03:05.996Z,20.81
2019-01-17T17:08:09.625Z,20.81
2019-01-17T17:13:13.118Z,20.81
2019-01-17T17:18:16.579Z,20.82
2019-01-17T17:23:20.058Z,20.84
2019-01-17T17:28:23.544Z,20.85
2019-01-17T17:33:27.026Z,20.86
2019-01-17T17:38:30.502Z,20.86
2019-01-17T17:43:33.982Z,20.86
2019-01-17T17:48:38.670Z,20.87
2019-01-17T17:53:42.223Z,20.87
2019-01-17T17:58:45.704Z,20.87
2019-01-17T18:03:49.185Z,20.88
2019-01-17T18:08:52.669Z,20.93
2019-01-17T18:13:56.125Z,20.99
2019-01-17T18:18:59.588Z,21.04
2019-01-17T18:24:03.048Z,21.07
2019-01-17T18:29:06.500Z,21.11
2019-01-17T18:34:10.028Z,21.14
2019-01-17T18:39:13.731Z,21.17
2019-01-17T18:44:17.195Z,21.22
2019-01-17T18:49:21.187Z,21.24
2019-01-17T18:54:25.255Z,21.28
2019-01-17T18:59:28.718Z,21.33
2019-01-17T19:04:32.179Z,21.36
2019-01-17T19:09:35.637Z,21.41
2019-01-17T19:14:39.100Z,21.43
2019-01-17T19:19:42.566Z,21.47
2019-01-17T19:24:46.031Z,21.50
2019-01-17T19:29:49.488Z,21.53
2019-01-17T19:34:52.949Z,21.55
2019-01-17T19:39:56.606Z,21.60
2019-01-17T19:45:00.179Z,21.61
2019-01-17T19:50:05.188Z,21.63
2019-01-17T19:55:08.791Z,21.66
2019-01-17T20:00:15.260Z,21.68
2019-01-17T20:05:24.373Z,21.69
2019-01-17T20:10:32.788Z,21.69
2019-01-17T20:15:36.491Z,21.63
2019-01-17T20:20:41.994Z,21.54
2019-01-17T20:25:45.449Z,21.54
2019-01-17T20:30:48.904Z,21.50
2019-01-17T20:35:52.376Z,21.45
2019-01-17T20:40:58.303Z,21.42
2019-01-17T20:46:01.027Z,21.38
2019-01-17T20:51:04.557Z,21.34
2019-01-17T20:56:08.014Z,21.30
2019-01-17T21:01:28.908Z,21.26
2019-01-17T21:06:32.330Z,21.23
2019-01-17T21:11:35.789Z,21.21
2019-01-17T21:16:39.249Z,21.21
2019-01-17T21:21:42.710Z,21.23
2019-01-17T21:26:46.169Z,21.22
2019-01-17T21:31:49.630Z,21.22
2019-01-17T21:36:53.091Z,21.21
2019-01-17T21:41:56.569Z,21.19
2019-01-17T21:47:00.050Z,21.19
2019-01-17T21:52:03.535Z,21.18
2019-01-17T21:57:07.030Z,21.16
2019-01-17T22:02:11.341Z,21.15
2019-01-17T22:07:14.817Z,21.13
2019-01-17T22:12:18.302Z,21.13
2019-01-17T22:17:21.783Z,21.11
2019-01-17T22:22:25.261Z,21.10
2019-01-17T22:27:28.738Z,21.08
2019-01-17T22:32:32.254Z,21.07
2019-01-17T22:37:35.734Z,21.03
2019-01-17T22:42:39.209Z,21.03
2019-01-17T22:47:43.330Z,21.01
2019-01-17T22:52:47.774Z,21.00
2019-01-17T22:57:51.271Z,20.98
2019-01-17T23:02:54.749Z,20.97
2019-01-17T23:07:58.346Z,20.94
2019-01-17T23:13:01.825Z,20.93
2019-01-17T23:18:05.568Z,20.91
2019-01-17T23:23:09.047Z,20.92
2019-01-17T23:28:13.541Z,20.91
2019-01-17T23:33:17.019Z,20.89
2019-01-17T23:38:20.497Z,20.89
2019-01-17T23:43:24.037Z,20.89
2019-01-17T23:48:27.464Z,20.88
2019-01-17T23:53:30.942Z,20.86
2019-01-17T23:58:34.427Z,20.85
